sensor_id;sensor_type;location;lat;lon;timestamp;P1;durP1;ratioP1;P2;durP2;ratioP2
2267;SDS011;11052;43.338;25.502;2023-05-10T00:01:44;1.20;;;1.10;;
2267;SDS011;11052;43.338;25.502;2023-05-10T00:04:11;1.50;;;1.40;;
2267;SDS011;11052;43.338;25.502;2023-05-10T00:06:38;1.60;;;1.50;;
2267;SDS011;11052;43.338;25.502;2023-05-10T00:09:06;1.90;;;1.33;;
2267;SDS011;11052;43.338;25.502;2023-05-10T00:11:33;1.13;;;1.03;;
2267;SDS011;11052;43.338;25.502;2023-05-10T00:14:00;1.47;;;1.37;;
2267;SDS011;11052;43.338;25.502;2023-05-10T00:16:28;1.87;;;1.60;;
2267;SDS011;11052;43.338;25.502;2023-05-10T00:18:55;1.60;;;1.50;;
2267;SDS011;11052;43.338;25.502;2023-05-10T00:21:22;1.00;;;0.90;;
2267;SDS011;11052;43.338;25.502;2023-05-10T00:23:49;2.00;;;1.83;;
2267;SDS011;11052;43.338;25.502;2023-05-10T00:26:16;2.30;;;1.67;;
2267;SDS011;11052;43.338;25.502;2023-05-10T00:28:43;2.13;;;1.47;;
2267;SDS011;11052;43.338;25.502;2023-05-10T00:31:10;3.63;;;2.07;;
2267;SDS011;11052;43.338;25.502;2023-05-10T00:33:41;2.83;;;2.00;;
2267;SDS011;11052;43.338;25.502;2023-05-10T00:36:08;1.80;;;1.70;;
2267;SDS011;11052;43.338;25.502;2023-05-10T00:38:35;2.00;;;1.90;;
2267;SDS011;11052;43.338;25.502;2023-05-10T00:41:02;1.73;;;1.33;;
2267;SDS011;11052;43.338;25.502;2023-05-10T00:43:30;1.43;;;1.33;;
2267;SDS011;11052;43.338;25.502;2023-05-10T00:45:57;12.70;;;2.60;;
2267;SDS011;11052;43.338;25.502;2023-05-10T00:48:25;2.17;;;1.33;;
2267;SDS011;11052;43.338;25.502;2023-05-10T00:50:53;1.60;;;1.50;;
2267;SDS011;11052;43.338;25.502;2023-05-10T00:53:20;2.10;;;1.60;;
2267;SDS011;11052;43.338;25.502;2023-05-10T00:55:48;2.40;;;1.67;;
2267;SDS011;11052;43.338;25.502;2023-05-10T00:58:16;2.17;;;1.97;;
2267;SDS011;11052;43.338;25.502;2023-05-10T01:00:43;1.20;;;1.10;;
2267;SDS011;11052;43.338;25.502;2023-05-10T01:03:13;1.27;;;0.83;;
2267;SDS011;11052;43.338;25.502;2023-05-10T01:05:40;4.07;;;2.43;;
2267;SDS011;11052;43.338;25.502;2023-05-10T01:08:09;1.60;;;1.10;;
2267;SDS011;11052;43.338;25.502;2023-05-10T01:10:36;1.60;;;1.50;;
2267;SDS011;11052;43.338;25.502;2023-05-10T01:13:03;1.80;;;1.70;;
2267;SDS011;11052;43.338;25.502;2023-05-10T01:15:31;3.63;;;1.30;;
2267;SDS011;11052;43.338;25.502;2023-05-10T01:17:58;3.63;;;2.20;;
2267;SDS011;11052;43.338;25.502;2023-05-10T01:20:26;2.73;;;2.53;;
2267;SDS011;11052;43.338;25.502;2023-05-10T01:23:04;2.53;;;2.03;;
2267;SDS011;11052;43.338;25.502;2023-05-10T01:34:34;2.83;;;1.43;;
2267;SDS011;11052;43.338;25.502;2023-05-10T01:37:05;1.73;;;1.63;;
2267;SDS011;11052;43.338;25.502;2023-05-10T01:39:39;1.00;;;0.90;;
2267;SDS011;11052;43.338;25.502;2023-05-10T01:42:14;1.77;;;1.63;;
2267;SDS011;11052;43.338;25.502;2023-05-10T01:44:46;3.90;;;1.87;;
2267;SDS011;11052;43.338;25.502;2023-05-10T01:47:23;3.50;;;2.20;;
2267;SDS011;11052;43.338;25.502;2023-05-10T01:50:00;4.47;;;2.73;;
2267;SDS011;11052;43.338;25.502;2023-05-10T01:52:30;2.40;;;2.20;;
2267;SDS011;11052;43.338;25.502;2023-05-10T01:55:00;1.43;;;1.27;;
2267;SDS011;11052;43.338;25.502;2023-05-10T01:57:32;2.47;;;2.37;;
2267;SDS011;11052;43.338;25.502;2023-05-10T02:00:01;1.57;;;1.40;;
2267;SDS011;11052;43.338;25.502;2023-05-10T02:02:33;1.60;;;1.40;;
2267;SDS011;11052;43.338;25.502;2023-05-10T02:05:05;2.03;;;1.90;;
2267;SDS011;11052;43.338;25.502;2023-05-10T02:07:33;2.27;;;1.73;;
2267;SDS011;11052;43.338;25.502;2023-05-10T02:10:02;3.17;;;2.93;;
2267;SDS011;11052;43.338;25.502;2023-05-10T02:12:33;2.47;;;2.27;;
2267;SDS011;11052;43.338;25.502;2023-05-10T02:15:03;3.07;;;2.53;;
2267;SDS011;11052;43.338;25.502;2023-05-10T02:17:33;2.83;;;2.60;;
2267;SDS011;11052;43.338;25.502;2023-05-10T02:20:02;3.70;;;1.70;;
2267;SDS011;11052;43.338;25.502;2023-05-10T02:22:31;2.43;;;1.60;;
2267;SDS011;11052;43.338;25.502;2023-05-10T02:24:59;2.90;;;2.60;;
2267;SDS011;11052;43.338;25.502;2023-05-10T02:27:28;4.10;;;3.07;;
2267;SDS011;11052;43.338;25.502;2023-05-10T02:29:56;6.03;;;2.70;;
2267;SDS011;11052;43.338;25.502;2023-05-10T02:32:25;2.80;;;2.13;;
2267;SDS011;11052;43.338;25.502;2023-05-10T02:34:55;2.77;;;2.57;;
2267;SDS011;11052;43.338;25.502;2023-05-10T02:37:23;3.97;;;2.80;;
2267;SDS011;11052;43.338;25.502;2023-05-10T02:39:52;1.83;;;1.73;;
2267;SDS011;11052;43.338;25.502;2023-05-10T02:42:22;4.20;;;2.73;;
2267;SDS011;11052;43.338;25.502;2023-05-10T02:44:53;2.80;;;2.50;;
2267;SDS011;11052;43.338;25.502;2023-05-10T02:47:23;22.47;;;2.27;;
2267;SDS011;11052;43.338;25.502;2023-05-10T02:49:50;2.97;;;2.33;;
2267;SDS011;11052;43.338;25.502;2023-05-10T02:52:21;3.03;;;2.33;;
2267;SDS011;11052;43.338;25.502;2023-05-10T02:54:52;1.70;;;1.60;;
2267;SDS011;11052;43.338;25.502;2023-05-10T02:57:22;6.60;;;3.50;;
2267;SDS011;11052;43.338;25.502;2023-05-10T02:59:54;2.73;;;1.23;;
2267;SDS011;11052;43.338;25.502;2023-05-10T03:02:21;2.73;;;1.70;;
2267;SDS011;11052;43.338;25.502;2023-05-10T03:04:48;1.53;;;1.20;;
2267;SDS011;11052;43.338;25.502;2023-05-10T03:07:16;1.43;;;1.33;;
2267;SDS011;11052;43.338;25.502;2023-05-10T03:09:47;3.67;;;3.20;;
2267;SDS011;11052;43.338;25.502;2023-05-10T03:12:21;4.43;;;1.30;;
2267;SDS011;11052;43.338;25.502;2023-05-10T03:15:00;1.57;;;1.47;;
2267;SDS011;11052;43.338;25.502;2023-05-10T03:17:32;2.13;;;1.53;;
2267;SDS011;11052;43.338;25.502;2023-05-10T03:20:08;1.33;;;1.23;;
2267;SDS011;11052;43.338;25.502;2023-05-10T03:22:38;2.83;;;2.33;;
2267;SDS011;11052;43.338;25.502;2023-05-10T03:25:12;5.00;;;2.60;;
2267;SDS011;11052;43.338;25.502;2023-05-10T03:27:43;2.00;;;1.90;;
2267;SDS011;11052;43.338;25.502;2023-05-10T03:30:11;4.37;;;2.23;;
2267;SDS011;11052;43.338;25.502;2023-05-10T03:32:39;1.60;;;1.50;;
2267;SDS011;11052;43.338;25.502;2023-05-10T03:35:07;1.90;;;1.80;;
2267;SDS011;11052;43.338;25.502;2023-05-10T03:37:34;1.80;;;1.63;;
2267;SDS011;11052;43.338;25.502;2023-05-10T03:40:02;2.03;;;1.60;;
2267;SDS011;11052;43.338;25.502;2023-05-10T03:42:31;5.00;;;1.90;;
2267;SDS011;11052;43.338;25.502;2023-05-10T03:44:58;1.57;;;1.20;;
2267;SDS011;11052;43.338;25.502;2023-05-10T03:47:25;1.80;;;1.70;;
2267;SDS011;11052;43.338;25.502;2023-05-10T03:49:52;11.63;;;1.87;;
2267;SDS011;11052;43.338;25.502;2023-05-10T03:52:19;1.73;;;1.43;;
2267;SDS011;11052;43.338;25.502;2023-05-10T03:54:46;2.30;;;2.10;;
2267;SDS011;11052;43.338;25.502;2023-05-10T03:57:14;14.90;;;2.70;;
2267;SDS011;11052;43.338;25.502;2023-05-10T03:59:42;3.90;;;2.53;;
2267;SDS011;11052;43.338;25.502;2023-05-10T04:02:10;1.27;;;1.13;;
2267;SDS011;11052;43.338;25.502;2023-05-10T04:04:37;1.20;;;1.10;;
2267;SDS011;11052;43.338;25.502;2023-05-10T04:07:04;1.33;;;1.23;;
2267;SDS011;11052;43.338;25.502;2023-05-10T04:09:31;2.10;;;2.00;;
2267;SDS011;11052;43.338;25.502;2023-05-10T04:11:58;4.00;;;1.70;;
2267;SDS011;11052;43.338;25.502;2023-05-10T04:14:27;3.10;;;2.00;;
2267;SDS011;11052;43.338;25.502;2023-05-10T04:16:56;1.50;;;1.40;;
2267;SDS011;11052;43.338;25.502;2023-05-10T04:19:23;7.90;;;1.20;;
2267;SDS011;11052;43.338;25.502;2023-05-10T04:21:50;0.90;;;0.80;;
2267;SDS011;11052;43.338;25.502;2023-05-10T04:24:18;3.60;;;3.00;;
2267;SDS011;11052;43.338;25.502;2023-05-10T04:26:46;1.70;;;1.60;;
2267;SDS011;11052;43.338;25.502;2023-05-10T04:29:13;2.20;;;2.00;;
2267;SDS011;11052;43.338;25.502;2023-05-10T04:31:40;4.30;;;2.10;;
2267;SDS011;11052;43.338;25.502;2023-05-10T04:34:08;3.70;;;2.23;;
2267;SDS011;11052;43.338;25.502;2023-05-10T04:36:35;6.73;;;3.00;;
2267;SDS011;11052;43.338;25.502;2023-05-10T04:39:03;2.50;;;1.63;;
2267;SDS011;11052;43.338;25.502;2023-05-10T04:41:30;2.60;;;2.00;;
2267;SDS011;11052;43.338;25.502;2023-05-10T04:43:57;3.00;;;2.30;;
2267;SDS011;11052;43.338;25.502;2023-05-10T04:46:24;6.80;;;1.80;;
2267;SDS011;11052;43.338;25.502;2023-05-10T04:48:51;2.70;;;2.00;;
2267;SDS011;11052;43.338;25.502;2023-05-10T04:51:20;4.07;;;2.83;;
2267;SDS011;11052;43.338;25.502;2023-05-10T04:53:47;2.77;;;1.63;;
2267;SDS011;11052;43.338;25.502;2023-05-10T04:56:14;2.57;;;2.37;;
2267;SDS011;11052;43.338;25.502;2023-05-10T04:58:42;2.07;;;1.70;;
2267;SDS011;11052;43.338;25.502;2023-05-10T05:01:09;2.07;;;1.10;;
2267;SDS011;11052;43.338;25.502;2023-05-10T05:03:36;2.63;;;2.33;;
2267;SDS011;11052;43.338;25.502;2023-05-10T05:06:04;1.83;;;1.63;;
2267;SDS011;11052;43.338;25.502;2023-05-10T05:08:33;4.00;;;2.40;;
2267;SDS011;11052;43.338;25.502;2023-05-10T05:11:00;1.30;;;1.03;;
2267;SDS011;11052;43.338;25.502;2023-05-10T05:13:27;2.40;;;2.20;;
2267;SDS011;11052;43.338;25.502;2023-05-10T05:15:54;2.33;;;2.23;;
2267;SDS011;11052;43.338;25.502;2023-05-10T05:18:21;2.43;;;2.23;;
2267;SDS011;11052;43.338;25.502;2023-05-10T05:20:48;3.53;;;2.00;;
2267;SDS011;11052;43.338;25.502;2023-05-10T05:23:16;2.13;;;1.93;;
2267;SDS011;11052;43.338;25.502;2023-05-10T05:25:45;1.33;;;1.23;;
2267;SDS011;11052;43.338;25.502;2023-05-10T05:28:12;2.33;;;2.03;;
2267;SDS011;11052;43.338;25.502;2023-05-10T05:30:39;2.00;;;1.83;;
2267;SDS011;11052;43.338;25.502;2023-05-10T05:33:06;2.70;;;1.90;;
2267;SDS011;11052;43.338;25.502;2023-05-10T05:35:33;1.17;;;1.03;;
2267;SDS011;11052;43.338;25.502;2023-05-10T05:38:01;1.43;;;1.33;;
2267;SDS011;11052;43.338;25.502;2023-05-10T05:40:28;2.30;;;2.10;;
2267;SDS011;11052;43.338;25.502;2023-05-10T05:42:56;3.40;;;2.80;;
2267;SDS011;11052;43.338;25.502;2023-05-10T05:45:23;0.93;;;0.83;;
2267;SDS011;11052;43.338;25.502;2023-05-10T05:47:50;1.87;;;1.67;;
2267;SDS011;11052;43.338;25.502;2023-05-10T05:50:17;1.63;;;1.53;;
2267;SDS011;11052;43.338;25.502;2023-05-10T05:52:45;1.20;;;1.07;;
2267;SDS011;11052;43.338;25.502;2023-05-10T05:55:12;2.33;;;1.30;;
2267;SDS011;11052;43.338;25.502;2023-05-10T05:57:39;1.20;;;0.77;;
2267;SDS011;11052;43.338;25.502;2023-05-10T06:00:08;2.53;;;1.20;;
2267;SDS011;11052;43.338;25.502;2023-05-10T06:02:35;1.60;;;1.50;;
2267;SDS011;11052;43.338;25.502;2023-05-10T06:05:03;1.10;;;0.97;;
2267;SDS011;11052;43.338;25.502;2023-05-10T06:07:30;2.67;;;1.50;;
2267;SDS011;11052;43.338;25.502;2023-05-10T06:09:57;1.87;;;1.30;;
2267;SDS011;11052;43.338;25.502;2023-05-10T06:12:25;1.47;;;0.90;;
2267;SDS011;11052;43.338;25.502;2023-05-10T06:14:52;1.57;;;0.60;;
2267;SDS011;11052;43.338;25.502;2023-05-10T06:17:20;2.33;;;1.13;;
2267;SDS011;11052;43.338;25.502;2023-05-10T06:19:48;1.50;;;1.10;;
2267;SDS011;11052;43.338;25.502;2023-05-10T06:22:15;1.33;;;0.80;;
2267;SDS011;11052;43.338;25.502;2023-05-10T06:24:42;1.00;;;0.83;;
2267;SDS011;11052;43.338;25.502;2023-05-10T06:27:09;1.00;;;0.90;;
2267;SDS011;11052;43.338;25.502;2023-05-10T06:29:37;1.60;;;1.17;;
2267;SDS011;11052;43.338;25.502;2023-05-10T06:32:04;1.10;;;0.90;;
2267;SDS011;11052;43.338;25.502;2023-05-10T06:34:32;1.30;;;0.83;;
2267;SDS011;11052;43.338;25.502;2023-05-10T06:36:59;1.13;;;0.80;;
2267;SDS011;11052;43.338;25.502;2023-05-10T06:39:28;1.50;;;1.00;;
2267;SDS011;11052;43.338;25.502;2023-05-10T06:41:55;1.30;;;0.67;;
2267;SDS011;11052;43.338;25.502;2023-05-10T06:44:22;1.17;;;1.07;;
2267;SDS011;11052;43.338;25.502;2023-05-10T06:46:50;1.57;;;1.33;;
2267;SDS011;11052;43.338;25.502;2023-05-10T06:49:18;0.80;;;0.70;;
2267;SDS011;11052;43.338;25.502;2023-05-10T06:51:47;2.10;;;0.90;;
2267;SDS011;11052;43.338;25.502;2023-05-10T06:54:14;1.77;;;0.80;;
2267;SDS011;11052;43.338;25.502;2023-05-10T06:56:41;1.10;;;0.80;;
2267;SDS011;11052;43.338;25.502;2023-05-10T06:59:08;0.90;;;0.80;;
2267;SDS011;11052;43.338;25.502;2023-05-10T07:01:36;1.30;;;1.00;;
2267;SDS011;11052;43.338;25.502;2023-05-10T07:04:03;1.47;;;1.33;;
2267;SDS011;11052;43.338;25.502;2023-05-10T07:06:30;0.80;;;0.60;;
2267;SDS011;11052;43.338;25.502;2023-05-10T07:09:00;4.00;;;1.90;;
2267;SDS011;11052;43.338;25.502;2023-05-10T07:11:27;1.40;;;1.20;;
2267;SDS011;11052;43.338;25.502;2023-05-10T07:13:55;1.90;;;0.97;;
2267;SDS011;11052;43.338;25.502;2023-05-10T07:16:22;1.63;;;1.30;;
2267;SDS011;11052;43.338;25.502;2023-05-10T07:18:49;1.53;;;1.07;;
2267;SDS011;11052;43.338;25.502;2023-05-10T07:21:18;1.60;;;0.90;;
2267;SDS011;11052;43.338;25.502;2023-05-10T07:23:45;1.03;;;0.90;;
2267;SDS011;11052;43.338;25.502;2023-05-10T07:26:14;0.90;;;0.80;;
2267;SDS011;11052;43.338;25.502;2023-05-10T07:28:41;2.23;;;0.80;;
2267;SDS011;11052;43.338;25.502;2023-05-10T07:31:08;1.13;;;1.03;;
2267;SDS011;11052;43.338;25.502;2023-05-10T07:33:35;0.90;;;0.60;;
2267;SDS011;11052;43.338;25.502;2023-05-10T07:36:02;7.43;;;1.60;;
2267;SDS011;11052;43.338;25.502;2023-05-10T07:38:29;0.97;;;0.80;;
2267;SDS011;11052;43.338;25.502;2023-05-10T07:40:57;1.40;;;1.20;;
2267;SDS011;11052;43.338;25.502;2023-05-10T07:43:25;1.20;;;0.80;;
2267;SDS011;11052;43.338;25.502;2023-05-10T07:45:52;1.77;;;1.30;;
2267;SDS011;11052;43.338;25.502;2023-05-10T07:48:20;1.17;;;0.57;;
2267;SDS011;11052;43.338;25.502;2023-05-10T07:50:47;0.90;;;0.80;;
2267;SDS011;11052;43.338;25.502;2023-05-10T07:53:14;1.53;;;1.23;;
2267;SDS011;11052;43.338;25.502;2023-05-10T07:55:41;1.43;;;0.77;;
2267;SDS011;11052;43.338;25.502;2023-05-10T07:58:08;1.60;;;1.50;;
2267;SDS011;11052;43.338;25.502;2023-05-10T08:00:36;2.20;;;1.20;;
2267;SDS011;11052;43.338;25.502;2023-05-10T08:03:04;1.00;;;0.87;;
2267;SDS011;11052;43.338;25.502;2023-05-10T08:05:31;1.83;;;1.27;;
2267;SDS011;11052;43.338;25.502;2023-05-10T08:07:59;2.20;;;1.00;;
2267;SDS011;11052;43.338;25.502;2023-05-10T08:10:26;1.10;;;1.00;;
2267;SDS011;11052;43.338;25.502;2023-05-10T08:12:53;1.33;;;0.93;;
2267;SDS011;11052;43.338;25.502;2023-05-10T08:15:20;1.77;;;1.10;;
2267;SDS011;11052;43.338;25.502;2023-05-10T08:17:48;1.10;;;1.00;;
2267;SDS011;11052;43.338;25.502;2023-05-10T08:20:16;1.40;;;1.30;;
2267;SDS011;11052;43.338;25.502;2023-05-10T08:22:44;1.70;;;1.60;;
2267;SDS011;11052;43.338;25.502;2023-05-10T08:25:11;1.00;;;0.60;;
2267;SDS011;11052;43.338;25.502;2023-05-10T08:27:39;1.60;;;1.00;;
2267;SDS011;11052;43.338;25.502;2023-05-10T08:30:06;0.90;;;0.80;;
2267;SDS011;11052;43.338;25.502;2023-05-10T08:32:34;1.30;;;0.90;;
2267;SDS011;11052;43.338;25.502;2023-05-10T08:35:05;4.37;;;0.93;;
2267;SDS011;11052;43.338;25.502;2023-05-10T08:37:32;1.10;;;0.63;;
2267;SDS011;11052;43.338;25.502;2023-05-10T08:39:59;1.10;;;1.00;;
2267;SDS011;11052;43.338;25.502;2023-05-10T08:42:28;1.00;;;0.60;;
2267;SDS011;11052;43.338;25.502;2023-05-10T08:44:56;0.97;;;0.87;;
2267;SDS011;11052;43.338;25.502;2023-05-10T08:47:25;0.80;;;0.70;;
2267;SDS011;11052;43.338;25.502;2023-05-10T08:49:53;1.30;;;0.90;;
2267;SDS011;11052;43.338;25.502;2023-05-10T08:52:22;1.40;;;0.93;;
2267;SDS011;11052;43.338;25.502;2023-05-10T08:54:52;1.03;;;0.93;;
2267;SDS011;11052;43.338;25.502;2023-05-10T08:57:20;1.50;;;0.97;;
2267;SDS011;11052;43.338;25.502;2023-05-10T08:59:47;2.30;;;0.90;;
2267;SDS011;11052;43.338;25.502;2023-05-10T09:02:14;0.93;;;0.83;;
2267;SDS011;11052;43.338;25.502;2023-05-10T09:04:43;1.40;;;0.90;;
2267;SDS011;11052;43.338;25.502;2023-05-10T09:07:10;1.27;;;1.00;;
2267;SDS011;11052;43.338;25.502;2023-05-10T09:09:39;1.23;;;1.00;;
2267;SDS011;11052;43.338;25.502;2023-05-10T09:12:06;1.40;;;1.30;;
2267;SDS011;11052;43.338;25.502;2023-05-10T09:14:36;1.00;;;0.80;;
2267;SDS011;11052;43.338;25.502;2023-05-10T09:17:04;1.47;;;1.20;;
2267;SDS011;11052;43.338;25.502;2023-05-10T09:19:31;4.30;;;0.90;;
2267;SDS011;11052;43.338;25.502;2023-05-10T09:21:58;1.90;;;1.03;;
2267;SDS011;11052;43.338;25.502;2023-05-10T09:24:28;1.13;;;1.03;;
2267;SDS011;11052;43.338;25.502;2023-05-10T09:26:58;1.17;;;0.60;;
2267;SDS011;11052;43.338;25.502;2023-05-10T09:29:25;1.10;;;0.80;;
2267;SDS011;11052;43.338;25.502;2023-05-10T09:31:52;1.13;;;1.03;;
2267;SDS011;11052;43.338;25.502;2023-05-10T09:34:22;1.23;;;0.83;;
2267;SDS011;11052;43.338;25.502;2023-05-10T09:36:56;0.90;;;0.70;;
2267;SDS011;11052;43.338;25.502;2023-05-10T09:39:32;1.23;;;0.87;;
2267;SDS011;11052;43.338;25.502;2023-05-10T09:42:02;1.20;;;0.90;;
2267;SDS011;11052;43.338;25.502;2023-05-10T09:44:31;0.90;;;0.80;;
2267;SDS011;11052;43.338;25.502;2023-05-10T09:46:58;1.63;;;0.97;;
2267;SDS011;11052;43.338;25.502;2023-05-10T09:49:26;1.57;;;0.87;;
2267;SDS011;11052;43.338;25.502;2023-05-10T09:52:00;0.83;;;0.57;;
2267;SDS011;11052;43.338;25.502;2023-05-10T09:54:29;1.10;;;0.80;;
2267;SDS011;11052;43.338;25.502;2023-05-10T09:56:57;1.17;;;1.07;;
2267;SDS011;11052;43.338;25.502;2023-05-10T09:59:26;0.90;;;0.70;;
2267;SDS011;11052;43.338;25.502;2023-05-10T10:01:55;1.10;;;0.90;;
2267;SDS011;11052;43.338;25.502;2023-05-10T10:04:23;0.93;;;0.83;;
2267;SDS011;11052;43.338;25.502;2023-05-10T10:07:00;1.93;;;1.40;;
2267;SDS011;11052;43.338;25.502;2023-05-10T10:09:29;1.20;;;0.80;;
2267;SDS011;11052;43.338;25.502;2023-05-10T10:11:56;1.10;;;1.00;;
2267;SDS011;11052;43.338;25.502;2023-05-10T10:14:25;1.10;;;0.70;;
2267;SDS011;11052;43.338;25.502;2023-05-10T10:16:52;1.00;;;0.77;;
2267;SDS011;11052;43.338;25.502;2023-05-10T10:19:20;1.37;;;1.10;;
2267;SDS011;11052;43.338;25.502;2023-05-10T10:21:47;1.13;;;0.57;;
2267;SDS011;11052;43.338;25.502;2023-05-10T10:24:16;5.13;;;1.47;;
2267;SDS011;11052;43.338;25.502;2023-05-10T10:26:43;0.90;;;0.67;;
2267;SDS011;11052;43.338;25.502;2023-05-10T10:29:16;17.23;;;2.30;;
2267;SDS011;11052;43.338;25.502;2023-05-10T10:31:53;1.10;;;0.97;;
2267;SDS011;11052;43.338;25.502;2023-05-10T10:34:29;1.47;;;1.00;;
2267;SDS011;11052;43.338;25.502;2023-05-10T10:36:57;2.10;;;1.73;;
2267;SDS011;11052;43.338;25.502;2023-05-10T10:39:31;1.00;;;0.70;;
2267;SDS011;11052;43.338;25.502;2023-05-10T10:41:58;0.90;;;0.60;;
2267;SDS011;11052;43.338;25.502;2023-05-10T10:44:28;1.57;;;0.83;;
2267;SDS011;11052;43.338;25.502;2023-05-10T10:47:04;1.43;;;0.60;;
2267;SDS011;11052;43.338;25.502;2023-05-10T10:49:37;1.20;;;0.80;;
2267;SDS011;11052;43.338;25.502;2023-05-10T10:52:22;4.87;;;1.33;;
2267;SDS011;11052;43.338;25.502;2023-05-10T10:54:56;0.93;;;0.70;;
2267;SDS011;11052;43.338;25.502;2023-05-10T10:57:25;1.10;;;1.00;;
2267;SDS011;11052;43.338;25.502;2023-05-10T11:02:49;1.30;;;0.90;;
2267;SDS011;11052;43.338;25.502;2023-05-10T11:08:10;1.40;;;1.03;;
2267;SDS011;11052;43.338;25.502;2023-05-10T11:10:54;1.27;;;0.90;;
2267;SDS011;11052;43.338;25.502;2023-05-10T11:13:32;1.00;;;0.70;;
2267;SDS011;11052;43.338;25.502;2023-05-10T11:16:13;1.10;;;0.80;;
2267;SDS011;11052;43.338;25.502;2023-05-10T11:18:53;1.23;;;1.03;;
2267;SDS011;11052;43.338;25.502;2023-05-10T11:21:24;0.90;;;0.50;;
2267;SDS011;11052;43.338;25.502;2023-05-10T11:23:51;1.10;;;0.63;;
2267;SDS011;11052;43.338;25.502;2023-05-10T11:26:21;1.10;;;0.70;;
2267;SDS011;11052;43.338;25.502;2023-05-10T11:28:51;1.00;;;0.80;;
2267;SDS011;11052;43.338;25.502;2023-05-10T11:31:24;1.30;;;1.00;;
2267;SDS011;11052;43.338;25.502;2023-05-10T11:33:54;1.73;;;0.80;;
2267;SDS011;11052;43.338;25.502;2023-05-10T11:36:23;1.37;;;1.07;;
2267;SDS011;11052;43.338;25.502;2023-05-10T11:38:51;1.03;;;0.80;;
2267;SDS011;11052;43.338;25.502;2023-05-10T11:41:19;1.50;;;0.90;;
2267;SDS011;11052;43.338;25.502;2023-05-10T11:43:49;1.40;;;0.80;;
2267;SDS011;11052;43.338;25.502;2023-05-10T11:46:18;1.57;;;1.33;;
2267;SDS011;11052;43.338;25.502;2023-05-10T11:48:46;1.00;;;0.90;;
2267;SDS011;11052;43.338;25.502;2023-05-10T11:51:19;1.37;;;0.90;;
2267;SDS011;11052;43.338;25.502;2023-05-10T11:53:47;0.90;;;0.67;;
2267;SDS011;11052;43.338;25.502;2023-05-10T11:56:15;1.00;;;0.67;;
2267;SDS011;11052;43.338;25.502;2023-05-10T11:58:42;1.20;;;0.93;;
2267;SDS011;11052;43.338;25.502;2023-05-10T12:01:10;1.10;;;0.70;;
2267;SDS011;11052;43.338;25.502;2023-05-10T12:03:37;0.93;;;0.80;;
2267;SDS011;11052;43.338;25.502;2023-05-10T12:06:06;0.90;;;0.50;;
2267;SDS011;11052;43.338;25.502;2023-05-10T12:08:35;0.87;;;0.63;;
2267;SDS011;11052;43.338;25.502;2023-05-10T12:11:06;1.50;;;1.10;;
2267;SDS011;11052;43.338;25.502;2023-05-10T12:13:37;1.00;;;0.80;;
2267;SDS011;11052;43.338;25.502;2023-05-10T12:16:18;1.00;;;0.80;;
2267;SDS011;11052;43.338;25.502;2023-05-10T12:18:48;3.00;;;0.80;;
2267;SDS011;11052;43.338;25.502;2023-05-10T12:21:16;1.10;;;0.70;;
2267;SDS011;11052;43.338;25.502;2023-05-10T12:23:46;1.17;;;0.90;;
2267;SDS011;11052;43.338;25.502;2023-05-10T12:26:15;0.90;;;0.60;;
2267;SDS011;11052;43.338;25.502;2023-05-10T12:28:42;0.90;;;0.60;;
2267;SDS011;11052;43.338;25.502;2023-05-10T12:31:09;0.80;;;0.40;;
2267;SDS011;11052;43.338;25.502;2023-05-10T12:33:36;1.20;;;1.10;;
2267;SDS011;11052;43.338;25.502;2023-05-10T12:36:06;0.90;;;0.63;;
2267;SDS011;11052;43.338;25.502;2023-05-10T12:38:35;1.00;;;0.67;;
2267;SDS011;11052;43.338;25.502;2023-05-10T12:41:05;0.80;;;0.50;;
2267;SDS011;11052;43.338;25.502;2023-05-10T12:43:34;1.27;;;0.90;;
2267;SDS011;11052;43.338;25.502;2023-05-10T12:46:05;2.10;;;1.13;;
2267;SDS011;11052;43.338;25.502;2023-05-10T12:48:33;1.53;;;0.73;;
2267;SDS011;11052;43.338;25.502;2023-05-10T12:51:00;0.90;;;0.60;;
2267;SDS011;11052;43.338;25.502;2023-05-10T12:53:27;2.33;;;1.30;;
2267;SDS011;11052;43.338;25.502;2023-05-10T12:55:55;0.80;;;0.53;;
2267;SDS011;11052;43.338;25.502;2023-05-10T12:58:23;3.23;;;0.80;;
2267;SDS011;11052;43.338;25.502;2023-05-10T13:00:50;11.40;;;1.00;;
2267;SDS011;11052;43.338;25.502;2023-05-10T13:03:18;1.50;;;1.23;;
2267;SDS011;11052;43.338;25.502;2023-05-10T13:05:46;1.00;;;0.67;;
2267;SDS011;11052;43.338;25.502;2023-05-10T13:08:13;2.07;;;1.00;;
2267;SDS011;11052;43.338;25.502;2023-05-10T13:10:40;1.00;;;0.77;;
2267;SDS011;11052;43.338;25.502;2023-05-10T13:13:07;1.17;;;0.97;;
2267;SDS011;11052;43.338;25.502;2023-05-10T13:15:36;1.40;;;0.63;;
2267;SDS011;11052;43.338;25.502;2023-05-10T13:18:03;0.97;;;0.73;;
2267;SDS011;11052;43.338;25.502;2023-05-10T13:20:30;1.00;;;0.80;;
2267;SDS011;11052;43.338;25.502;2023-05-10T13:22:57;1.07;;;0.73;;
2267;SDS011;11052;43.338;25.502;2023-05-10T13:25:24;0.80;;;0.50;;
2267;SDS011;11052;43.338;25.502;2023-05-10T13:27:51;0.90;;;0.60;;
2267;SDS011;11052;43.338;25.502;2023-05-10T13:30:19;1.77;;;0.70;;
2267;SDS011;11052;43.338;25.502;2023-05-10T13:32:47;1.33;;;0.97;;
2267;SDS011;11052;43.338;25.502;2023-05-10T13:35:15;1.10;;;0.60;;
2267;SDS011;11052;43.338;25.502;2023-05-10T13:37:42;0.80;;;0.50;;
2267;SDS011;11052;43.338;25.502;2023-05-10T13:40:09;0.90;;;0.50;;
2267;SDS011;11052;43.338;25.502;2023-05-10T13:42:37;0.80;;;0.63;;
2267;SDS011;11052;43.338;25.502;2023-05-10T13:45:05;0.83;;;0.50;;
2267;SDS011;11052;43.338;25.502;2023-05-10T13:47:33;1.00;;;0.80;;
2267;SDS011;11052;43.338;25.502;2023-05-10T13:50:01;1.57;;;1.00;;
2267;SDS011;11052;43.338;25.502;2023-05-10T13:52:29;1.10;;;0.80;;
2267;SDS011;11052;43.338;25.502;2023-05-10T13:54:56;1.23;;;0.60;;
2267;SDS011;11052;43.338;25.502;2023-05-10T13:57:23;1.00;;;0.80;;
2267;SDS011;11052;43.338;25.502;2023-05-10T13:59:51;0.87;;;0.53;;
2267;SDS011;11052;43.338;25.502;2023-05-10T14:02:19;0.83;;;0.53;;
2267;SDS011;11052;43.338;25.502;2023-05-10T14:04:46;0.90;;;0.60;;
2267;SDS011;11052;43.338;25.502;2023-05-10T14:07:14;1.23;;;0.73;;
2267;SDS011;11052;43.338;25.502;2023-05-10T14:09:42;0.90;;;0.60;;
2267;SDS011;11052;43.338;25.502;2023-05-10T14:12:10;2.23;;;0.87;;
2267;SDS011;11052;43.338;25.502;2023-05-10T14:14:37;3.60;;;1.00;;
2267;SDS011;11052;43.338;25.502;2023-05-10T14:17:04;1.73;;;0.90;;
2267;SDS011;11052;43.338;25.502;2023-05-10T14:19:31;0.90;;;0.60;;
2267;SDS011;11052;43.338;25.502;2023-05-10T14:21:59;1.60;;;1.20;;
2267;SDS011;11052;43.338;25.502;2023-05-10T14:24:27;1.40;;;0.73;;
2267;SDS011;11052;43.338;25.502;2023-05-10T14:26:55;1.57;;;0.80;;
2267;SDS011;11052;43.338;25.502;2023-05-10T14:29:22;1.00;;;0.50;;
2267;SDS011;11052;43.338;25.502;2023-05-10T14:31:49;0.90;;;0.70;;
2267;SDS011;11052;43.338;25.502;2023-05-10T14:34:16;1.23;;;0.83;;
2267;SDS011;11052;43.338;25.502;2023-05-10T14:36:43;0.90;;;0.70;;
2267;SDS011;11052;43.338;25.502;2023-05-10T14:39:11;1.10;;;0.70;;
2267;SDS011;11052;43.338;25.502;2023-05-10T14:41:40;0.80;;;0.50;;
2267;SDS011;11052;43.338;25.502;2023-05-10T14:44:09;1.10;;;0.70;;
2267;SDS011;11052;43.338;25.502;2023-05-10T14:46:36;1.00;;;0.70;;
2267;SDS011;11052;43.338;25.502;2023-05-10T14:49:04;0.90;;;0.70;;
2267;SDS011;11052;43.338;25.502;2023-05-10T14:51:31;1.00;;;0.70;;
2267;SDS011;11052;43.338;25.502;2023-05-10T14:53:58;1.03;;;0.67;;
2267;SDS011;11052;43.338;25.502;2023-05-10T14:56:26;2.40;;;0.90;;
2267;SDS011;11052;43.338;25.502;2023-05-10T14:58:54;0.80;;;0.60;;
2267;SDS011;11052;43.338;25.502;2023-05-10T15:01:21;1.10;;;0.70;;
2267;SDS011;11052;43.338;25.502;2023-05-10T15:03:49;1.20;;;1.00;;
2267;SDS011;11052;43.338;25.502;2023-05-10T15:06:16;1.03;;;0.80;;
2267;SDS011;11052;43.338;25.502;2023-05-10T15:08:43;1.17;;;0.77;;
2267;SDS011;11052;43.338;25.502;2023-05-10T15:11:10;2.13;;;0.80;;